Time;durP1;ratioP1;P1;durP2;ratioP2;P2;SDS_P1;SDS_P2;PMS_P1;PMS_P2;Temp;Humidity;BMP_temperature;BMP_pressure;BME280_temperature;BME280_humidity;BME280_pressure;Samples;Min_cycle;Max_cycle;Signal;HPM_P1;HPM_P2
2023/06/10 00:00:42;;;;;;;5.60;2.40;;;16.30;99.90;;;;;;5075726;28;20045;-91
2023/06/10 00:03:09;;;;;;;2.75;2.17;;;17.60;99.90;;;;;;5075780;28;20072;-92
2023/06/10 00:05:35;;;;;;;3.67;2.10;;;16.20;99.90;;;;;;5058607;28;20055;-92
2023/06/10 00:08:07;;;;;;;5.28;2.42;;;19.00;99.90;;;;;;5059047;28;20052;-91
2023/06/10 00:10:36;;;;;;;3.25;2.00;;;16.10;99.90;;;;;;5058841;28;20053;-91
2023/06/10 00:13:03;;;;;;;4.50;2.00;;;15.90;99.90;;;;;;5058981;28;20052;-91
2023/06/10 00:15:29;;;;;;;5.13;2.00;;;15.80;99.90;;;;;;5059557;28;20108;-94
2023/06/10 00:17:55;;;;;;;3.25;2.22;;;16.30;99.90;;;;;;5059285;28;20040;-93
2023/06/10 00:20:24;;;;;;;4.43;1.77;;;16.00;99.90;;;;;;5058890;28;20048;-91
2023/06/10 00:22:50;;;;;;;4.43;2.15;;;16.10;99.90;;;;;;5075630;28;20078;-91
2023/06/10 00:25:16;;;;;;;4.43;2.60;;;16.10;99.90;;;;;;5059014;28;20067;-92
2023/06/10 00:27:42;;;;;;;5.60;2.38;;;14.60;99.90;;;;;;5057769;28;20517;-92
2023/06/10 00:30:08;;;;;;;4.65;2.35;;;16.00;99.90;;;;;;5075385;28;20492;-92
2023/06/10 00:32:35;;;;;;;3.90;2.33;;;16.00;99.90;;;;;;5058395;28;20086;-90
2023/06/10 00:35:02;;;;;;;3.65;2.13;;;16.00;99.90;;;;;;5074961;28;20048;-90
2023/06/10 00:37:29;;;;;;;4.65;2.28;;;16.00;99.90;;;;;;5058742;28;20098;-90
2023/06/10 00:39:54;;;;;;;4.18;2.30;;;15.90;99.90;;;;;;5075310;28;20526;-92
2023/06/10 00:42:22;;;;;;;6.55;2.72;;;15.90;99.90;;;;;;5075391;28;20045;-92
2023/06/10 00:44:47;;;;;;;4.43;2.30;;;16.60;99.90;;;;;;5058110;28;20531;-92
2023/06/10 00:47:14;;;;;;;2.67;1.77;;;18.50;97.20;;;;;;5074973;28;20112;-92
2023/06/10 00:49:40;;;;;;;5.03;2.47;;;17.50;96.40;;;;;;5058590;28;20048;-93
2023/06/10 00:52:08;;;;;;;5.07;2.78;;;15.40;93.10;;;;;;5058138;28;20087;-94
2023/06/10 00:54:33;;;;;;;4.38;2.35;;;15.60;31.70;;;;;;5058880;28;20048;-92
2023/06/10 00:57:01;;;;;;;5.50;2.30;;;15.80;56.30;;;;;;5075016;28;20473;-90
2023/06/10 00:59:31;;;;;;;6.40;2.55;;;16.00;94.00;;;;;;5058338;28;20044;-94
2023/06/10 01:01:56;;;;;;;4.55;2.00;;;16.40;99.90;;;;;;5058534;28;20051;-93
2023/06/10 01:04:23;;;;;;;5.90;2.25;;;15.70;95.70;;;;;;5058505;28;20139;-92
2023/06/10 01:06:49;;;;;;;3.50;2.00;;;19.70;47.90;;;;;;5058325;28;20045;-90
2023/06/10 01:10:05;;;;;;;5.25;2.70;;;17.60;14.70;;;;;;5058842;28;20052;-92
2023/06/10 01:12:48;;;;;;;3.65;1.98;;;13.70;1.00;;;;;;5000597;28;20057;-91
2023/06/10 01:15:16;;;;;;;4.20;2.55;;;15.40;1.00;;;;;;5075197;28;20056;-91
2023/06/10 01:18:01;;;;;;;5.05;2.38;;;16.70;1.00;;;;;;5058479;28;20040;-91
2023/06/10 01:20:28;;;;;;;3.50;2.47;;;15.20;1.00;;;;;;5075089;28;20056;-91
2023/06/10 01:22:54;;;;;;;7.13;2.63;;;14.60;1.00;;;;;;5058593;28;20044;-92
2023/06/10 01:25:27;;;;;;;6.00;2.40;;;17.60;7.40;;;;;;5058329;28;20049;-92
2023/06/10 01:28:13;;;;;;;3.33;2.50;;;15.20;1.00;;;;;;5075251;28;20048;-93
2023/06/10 01:31:07;;;;;;;6.35;2.38;;;15.10;1.00;;;;;;5057835;28;20417;-91
2023/06/10 01:33:37;;;;;;;4.38;2.47;;;15.10;1.00;;;;;;5076066;28;20049;-90
2023/06/10 01:36:03;;;;;;;3.78;2.30;;;14.80;1.00;;;;;;5075596;28;20091;-94
2023/06/10 01:38:36;;;;;;;4.32;2.50;;;15.00;13.60;;;;;;5058907;28;20106;-93
2023/06/10 01:41:03;;;;;;;4.40;2.78;;;16.80;1.00;;;;;;5057657;28;20048;-94
2023/06/10 01:43:28;;;;;;;3.35;2.15;;;17.20;1.00;;;;;;5057893;28;20048;-90
2023/06/10 01:45:54;;;;;;;7.00;3.22;;;15.30;1.00;;;;;;5057198;28;20055;-91
2023/06/10 01:48:19;;;;;;;4.60;2.83;;;16.20;5.90;;;;;;5057277;28;20040;-92
2023/06/10 01:50:45;;;;;;;6.90;2.58;;;17.60;1.00;;;;;;5073991;28;20078;-93
2023/06/10 01:53:11;;;;;;;7.80;2.38;;;14.70;20.50;;;;;;5073900;28;20060;-94
2023/06/10 01:55:36;;;;;;;3.60;2.30;;;16.80;3.70;;;;;;5057601;28;20080;-92
2023/06/10 01:58:02;;;;;;;5.18;2.53;;;16.70;1.00;;;;;;5057611;28;20056;-93
2023/06/10 02:00:28;;;;;;;5.68;2.85;;;14.50;1.80;;;;;;5057033;28;20052;-91
2023/06/10 02:02:54;;;;;;;5.43;2.17;;;14.50;18.90;;;;;;5059583;22;20405;-66
2023/06/10 02:05:19;;;;;;;5.88;2.70;;;14.50;1.00;;;;;;5014094;28;20049;-66
2023/06/10 02:07:45;;;;;;;5.85;2.58;;;14.30;1.00;;;;;;5012841;28;20397;-65
2023/06/10 02:10:11;;;;;;;5.50;2.40;;;14.40;1.00;;;;;;5014150;28;20041;-65
2023/06/10 02:12:36;;;;;;;4.55;2.47;;;14.40;1.00;;;;;;5014041;28;20117;-65
2023/06/10 02:15:02;;;;;;;3.72;2.30;;;14.30;1.00;;;;;;5014056;28;20396;-65
2023/06/10 02:17:28;;;;;;;4.78;2.35;;;14.20;1.00;;;;;;4996080;28;20030;-65
2023/06/10 02:19:53;;;;;;;4.03;2.13;;;14.20;1.00;;;;;;5012776;28;20486;-65
2023/06/10 02:22:21;;;;;;;3.67;2.03;;;13.90;1.00;;;;;;5012277;28;20042;-66
2023/06/10 02:24:46;;;;;;;4.40;2.45;;;14.40;1.00;;;;;;5013947;28;20038;-65
2023/06/10 02:27:12;;;;;;;7.47;2.03;;;14.00;1.00;;;;;;5013876;28;20038;-66
2023/06/10 02:29:38;;;;;;;6.35;2.35;;;14.10;53.40;;;;;;5013788;28;20481;-65
2023/06/10 02:32:05;;;;;;;7.82;2.33;;;14.10;99.90;;;;;;5013830;28;20077;-66
2023/06/10 02:34:31;;;;;;;5.28;2.53;;;14.00;99.90;;;;;;5013773;28;20452;-66
2023/06/10 02:36:57;;;;;;;3.65;2.40;;;14.30;99.90;;;;;;5013742;28;20075;-66
2023/06/10 02:39:22;;;;;;;5.05;2.03;;;13.90;95.40;;;;;;5013735;28;20458;-67
2023/06/10 02:41:48;;;;;;;3.35;2.28;;;13.90;95.80;;;;;;5013659;28;20044;-66
2023/06/10 02:44:13;;;;;;;7.63;2.20;;;14.00;99.90;;;;;;5013618;28;20474;-65
2023/06/10 02:46:39;;;;;;;4.97;2.25;;;14.40;99.90;;;;;;5012124;28;20400;-66
2023/06/10 02:49:05;;;;;;;7.20;2.40;;;13.80;99.90;;;;;;5013486;28;20037;-66
2023/06/10 02:51:30;;;;;;;5.75;2.25;;;13.70;40.70;;;;;;5013042;28;20393;-66
2023/06/10 02:53:56;;;;;;;3.30;2.28;;;13.80;57.70;;;;;;5013501;28;20037;-66
2023/06/10 02:56:22;;;;;;;4.20;2.53;;;13.80;90.30;;;;;;5012236;28;20050;-66
2023/06/10 02:58:48;;;;;;;3.92;2.35;;;13.70;99.90;;;;;;5013199;28;20516;-65
2023/06/10 03:01:14;;;;;;;4.35;1.95;;;14.00;99.90;;;;;;5013088;28;20052;-65
2023/06/10 03:03:42;;;;;;;4.45;2.80;;;13.70;99.90;;;;;;5026745;28;20054;-65
2023/06/10 03:06:10;;;;;;;6.72;2.47;;;13.70;99.90;;;;;;5032990;28;20042;-66
2023/06/10 03:08:36;;;;;;;6.03;2.45;;;14.40;99.90;;;;;;5033134;28;20505;-65
2023/06/10 03:11:02;;;;;;;7.25;2.38;;;15.00;99.90;;;;;;5015254;28;20097;-66
2023/06/10 03:13:27;;;;;;;4.70;2.00;;;13.80;99.90;;;;;;5032639;28;20120;-66
2023/06/10 03:15:53;;;;;;;4.45;2.17;;;14.00;99.90;;;;;;5032936;28;20069;-66
2023/06/10 03:18:18;;;;;;;3.88;2.28;;;13.60;99.90;;;;;;5032915;28;20040;-65
2023/06/10 03:20:44;;;;;;;6.22;2.78;;;13.60;99.90;;;;;;5032643;28;20029;-66
2023/06/10 03:23:10;;;;;;;5.07;2.00;;;13.80;99.90;;;;;;5032838;28;20069;-66
2023/06/10 03:25:35;;;;;;;6.25;2.75;;;13.60;99.90;;;;;;5032964;28;20042;-66
2023/06/10 03:28:01;;;;;;;4.45;2.45;;;;;;;;;;5032911;28;20041;-66
2023/06/10 03:30:28;;;;;;;4.63;2.80;;;13.40;55.10;;;;;;5014923;28;20046;-65
2023/06/10 03:32:54;;;;;;;4.20;2.38;;;13.30;90.60;;;;;;5032465;28;20042;-65
2023/06/10 03:35:19;;;;;;;3.40;1.70;;;13.30;99.90;;;;;;5032708;28;20041;-65
2023/06/10 03:37:45;;;;;;;4.05;2.30;;;13.30;99.90;;;;;;5032777;28;20492;-65
2023/06/10 03:40:11;;;;;;;3.55;2.25;;;13.30;99.90;;;;;;5032643;28;20116;-65
2023/06/10 03:42:36;;;;;;;3.70;2.22;;;13.20;99.90;;;;;;5014802;28;20053;-66
2023/06/10 03:45:04;;;;;;;3.30;2.10;;;13.20;99.90;;;;;;5014933;28;20041;-66
2023/06/10 03:47:36;;;;;;;6.07;2.60;;;13.20;99.90;;;;;;5032708;28;20042;-67
2023/06/10 03:50:04;;;;;;;4.45;2.33;;;13.20;99.90;;;;;;5032989;28;20052;-68
2023/06/10 03:52:30;;;;;;;3.38;1.92;;;13.20;99.90;;;;;;5032515;28;20047;-65
2023/06/10 03:54:55;;;;;;;3.15;1.80;;;13.20;99.90;;;;;;5033586;28;20069;-66
2023/06/10 03:57:21;;;;;;;4.70;2.17;;;13.20;99.90;;;;;;5032542;28;20397;-66
2023/06/10 03:59:47;;;;;;;4.47;2.45;;;13.30;99.90;;;;;;5032766;28;20048;-67
2023/06/10 04:02:12;;;;;;;6.03;2.35;;;13.20;99.90;;;;;;5032406;28;20045;-66
2023/06/10 04:04:38;;;;;;;4.18;2.08;;;13.20;99.90;;;;;;5035750;28;20045;-65
2023/06/10 04:07:05;;;;;;;5.50;2.70;;;13.20;99.90;;;;;;5018093;28;20072;-65
2023/06/10 04:09:31;;;;;;;4.78;2.30;;;13.20;99.90;;;;;;5035976;28;20041;-65
2023/06/10 04:11:57;;;;;;;3.00;1.85;;;13.20;46.80;;;;;;5018081;28;20483;-65
2023/06/10 04:14:23;;;;;;;7.38;2.15;;;13.30;99.90;;;;;;5036033;28;20173;-65
2023/06/10 04:16:50;;;;;;;4.05;2.22;;;13.30;1.00;;;;;;5036043;28;20039;-65
2023/06/10 04:19:16;;;;;;;7.13;2.60;;;13.40;99.90;;;;;;5035799;28;20042;-66
2023/06/10 04:21:42;;;;;;;3.80;2.08;;;13.40;99.90;;;;;;5018191;28;20547;-66
2023/06/10 04:24:07;;;;;;;3.00;2.10;;;13.40;99.90;;;;;;5018248;28;20116;-67
2023/06/10 04:26:35;;;;;;;7.13;2.35;;;13.50;1.00;;;;;;5035549;28;20476;-66
2023/06/10 04:29:01;;;;;;;7.82;2.15;;;13.50;99.90;;;;;;5035921;28;20045;-67
2023/06/10 04:31:27;;;;;;;4.75;2.45;;;13.50;99.90;;;;;;5034353;28;20534;-65
2023/06/10 04:33:53;;;;;;;4.75;2.30;;;13.60;99.90;;;;;;5035531;28;20048;-66
2023/06/10 04:36:19;;;;;;;5.65;2.40;;;13.60;99.90;;;;;;5035717;28;20405;-65
2023/06/10 04:38:45;;;;;;;7.80;2.38;;;14.40;99.90;;;;;;5017977;28;20045;-66
2023/06/10 04:41:11;;;;;;;6.82;1.88;;;13.90;99.90;;;;;;5035623;28;20046;-66
2023/06/10 04:43:36;;;;;;;4.75;2.15;;;14.10;99.90;;;;;;5017656;28;20512;-66
2023/06/10 04:46:02;;;;;;;7.68;2.78;;;13.80;99.90;;;;;;5017636;28;20398;-66
2023/06/10 04:48:28;;;;;;;8.75;2.53;;;13.90;99.90;;;;;;5017557;28;20520;-65
2023/06/10 04:50:53;;;;;;;4.47;2.10;;;13.90;1.00;;;;;;5035380;28;20068;-66
2023/06/10 04:53:20;;;;;;;6.95;2.58;;;14.00;99.90;;;;;;5035491;28;20496;-66
2023/06/10 04:55:46;;;;;;;3.72;2.00;;;14.10;90.30;;;;;;5017539;28;20052;-66
2023/06/10 04:58:12;;;;;;;5.60;1.95;;;14.60;1.00;;;;;;5017479;28;20124;-68
2023/06/10 05:00:37;;;;;;;3.72;2.08;;;14.60;99.90;;;;;;5035025;28;20041;-66
2023/06/10 05:03:03;;;;;;;4.72;2.47;;;14.40;99.90;;;;;;5034964;28;20053;-67
2023/06/10 05:05:29;;;;;;;3.97;2.25;;;14.40;1.00;;;;;;5017484;28;20132;-65
2023/06/10 05:07:54;;;;;;;3.72;2.00;;;14.60;1.00;;;;;;5017373;28;20052;-65
2023/06/10 05:10:20;;;;;;;5.50;2.55;;;14.40;99.90;;;;;;5035155;28;20045;-67
2023/06/10 05:12:46;;;;;;;5.55;2.38;;;14.60;1.00;;;;;;5034781;28;20049;-67
2023/06/10 05:15:11;;;;;;;5.38;2.47;;;15.20;99.90;;;;;;5016759;28;20121;-66
2023/06/10 05:17:37;;;;;;;5.72;2.63;;;14.90;76.90;;;;;;5034787;28;20083;-66
2023/06/10 05:20:04;;;;;;;5.18;2.45;;;15.00;99.90;;;;;;5034556;28;20052;-66
2023/06/10 05:22:29;;;;;;;3.50;1.98;;;15.00;99.90;;;;;;5034678;28;20045;-66
2023/06/10 05:24:55;;;;;;;4.13;2.38;;;15.10;98.40;;;;;;5017106;28;20044;-67
2023/06/10 05:27:21;;;;;;;5.00;2.65;;;15.20;99.90;;;;;;5034468;28;20049;-67
2023/06/10 05:29:47;;;;;;;5.72;2.85;;;15.30;99.90;;;;;;5016762;28;20085;-67
2023/06/10 05:32:13;;;;;;;7.25;2.92;;;15.30;99.90;;;;;;5034910;28;20508;-67
2023/06/10 05:34:39;;;;;;;5.50;2.67;;;15.50;27.10;;;;;;5016722;28;20049;-66
2023/06/10 05:37:05;;;;;;;6.78;2.60;;;16.20;99.90;;;;;;5034530;28;20159;-66
2023/06/10 05:39:30;;;;;;;4.22;2.55;;;15.60;99.90;;;;;;5016812;28;20087;-65
2023/06/10 05:41:58;;;;;;;4.28;2.88;;;15.80;99.90;;;;;;5034460;28;20484;-65
2023/06/10 05:44:24;;;;;;;5.35;2.08;;;15.80;99.90;;;;;;5016374;28;20046;-66
2023/06/10 05:46:50;;;;;;;3.90;2.80;;;15.90;21.00;;;;;;5034293;28;20373;-66
2023/06/10 05:49:16;;;;;;;7.05;2.65;;;16.00;1.00;;;;;;5016575;28;20080;-66
2023/06/10 05:51:42;;;;;;;4.40;2.38;;;16.60;1.00;;;;;;5033885;28;20501;-65
2023/06/10 05:54:07;;;;;;;4.45;2.60;;;16.20;99.90;;;;;;5016519;28;20041;-66
2023/06/10 05:56:33;;;;;;;5.38;2.47;;;16.20;99.90;;;;;;5034127;28;20044;-66
2023/06/10 05:58:59;;;;;;;4.03;2.20;;;16.70;99.90;;;;;;5016339;28;20047;-66
2023/06/10 06:01:24;;;;;;;7.10;2.60;;;16.40;99.90;;;;;;5034059;28;20116;-63
2023/06/10 06:03:50;;;;;;;6.15;2.30;;;16.40;99.90;;;;;;5016002;28;20057;-63
2023/06/10 06:06:16;;;;;;;7.68;3.28;;;16.50;99.90;;;;;;5034021;28;20477;-63
2023/06/10 06:08:41;;;;;;;6.68;3.10;;;16.60;99.90;;;;;;5033887;28;20045;-64
2023/06/10 06:11:07;;;;;;;6.45;2.88;;;16.60;99.90;;;;;;5033850;28;20046;-63
2023/06/10 06:13:33;;;;;;;6.40;2.90;;;16.70;99.90;;;;;;5033826;28;20041;-64
2023/06/10 06:15:58;;;;;;;4.65;2.95;;;16.70;99.90;;;;;;5033743;28;20041;-64
2023/06/10 06:18:24;;;;;;;4.03;2.42;;;16.90;99.90;;;;;;5033810;28;20483;-63
2023/06/10 06:20:50;;;;;;;4.88;2.88;;;17.00;99.90;;;;;;5033669;28;20477;-63
2023/06/10 06:23:15;;;;;;;7.38;2.65;;;17.20;99.90;;;;;;5033717;28;20029;-63
2023/06/10 06:25:41;;;;;;;5.78;3.35;;;17.20;99.90;;;;;;5033050;28;20041;-63
2023/06/10 06:28:07;;;;;;;5.30;3.53;;;17.20;99.90;;;;;;5033267;28;20416;-67
2023/06/10 06:30:33;;;;;;;8.15;2.85;;;17.20;99.90;;;;;;5033592;28;20136;-67
2023/06/10 06:32:59;;;;;;;6.53;3.30;;;17.50;99.90;;;;;;5033091;28;20084;-70
2023/06/10 06:35:24;;;;;;;8.43;3.45;;;17.50;99.90;;;;;;5032244;28;20041;-67
2023/06/10 06:37:50;;;;;;;6.80;3.03;;;17.50;99.90;;;;;;5033378;28;20048;-63
2023/06/10 06:40:15;;;;;;;6.05;3.15;;;17.40;99.90;;;;;;5033400;28;20108;-65
2023/06/10 06:42:41;;;;;;;4.88;3.03;;;17.60;99.90;;;;;;5033391;28;20420;-63
2023/06/10 06:45:07;;;;;;;6.55;3.15;;;17.70;99.90;;;;;;5033266;28;20049;-65
2023/06/10 06:47:32;;;;;;;7.60;2.65;;;17.80;99.90;;;;;;5015582;28;20465;-67
2023/06/10 06:49:58;;;;;;;7.03;2.97;;;18.00;99.90;;;;;;5033289;28;20040;-65
2023/06/10 06:52:24;;;;;;;8.25;3.60;;;18.70;99.90;;;;;;5033156;28;20481;-63
2023/06/10 06:54:49;;;;;;;6.10;2.90;;;18.30;99.90;;;;;;5033184;28;20045;-65
2023/06/10 06:57:15;;;;;;;5.25;2.95;;;18.10;99.50;;;;;;5033144;28;20044;-65
2023/06/10 06:59:41;;;;;;;7.07;3.03;;;18.50;97.10;;;;;;5033107;28;20041;-67
2023/06/10 07:02:07;;;;;;;7.07;2.72;;;18.50;94.10;;;;;;5032862;28;20120;-66
2023/06/10 07:04:32;;;;;;;5.80;2.65;;;18.70;93.90;;;;;;5033045;28;20440;-64
2023/06/10 07:06:58;;;;;;;6.95;3.15;;;18.80;90.60;;;;;;5033059;28;20389;-66
2023/06/10 07:09:23;;;;;;;5.95;3.05;;;18.90;86.80;;;;;;5032995;28;20092;-66
2023/06/10 07:11:49;;;;;;;6.53;2.92;;;18.90;81.00;;;;;;5032588;28;20045;-64
2023/06/10 07:14:14;;;;;;;6.20;3.15;;;19.20;74.70;;;;;;5032691;28;20505;-67
2023/06/10 07:16:40;;;;;;;6.10;2.78;;;19.00;73.90;;;;;;5032923;28;20100;-63
2023/06/10 07:19:06;;;;;;;6.07;2.65;;;19.20;73.40;;;;;;5032867;28;20389;-65
2023/06/10 07:21:32;;;;;;;6.13;3.40;;;19.30;71.90;;;;;;5032863;28;20061;-63
2023/06/10 07:23:58;;;;;;;4.57;2.97;;;19.40;68.50;;;;;;5032833;28;20120;-65
2023/06/10 07:26:25;;;;;;;4.28;2.58;;;19.40;71.20;;;;;;4998436;28;20133;-64
2023/06/10 07:28:51;;;;;;;5.07;2.50;;;19.70;69.80;;;;;;5032766;28;20045;-64
2023/06/10 07:31:16;;;;;;;9.70;3.38;;;19.80;67.80;;;;;;5014687;28;20504;-64
2023/06/10 07:33:43;;;;;;;5.05;2.78;;;19.80;60.80;;;;;;5032503;28;20036;-62
2023/06/10 07:36:09;;;;;;;7.85;2.85;;;20.20;61.90;;;;;;5014783;28;20125;-62
2023/06/10 07:38:35;;;;;;;4.40;2.78;;;19.90;50.50;;;;;;5034317;28;20128;-62
2023/06/10 07:41:01;;;;;;;4.15;2.55;;;19.90;49.30;;;;;;5018828;28;20038;-64
2023/06/10 07:43:27;;;;;;;5.90;3.13;;;20.00;53.90;;;;;;5036675;28;20048;-63
2023/06/10 07:45:52;;;;;;;5.18;2.53;;;20.20;51.20;;;;;;5036624;28;20116;-64
2023/06/10 07:48:18;;;;;;;4.03;2.63;;;20.20;54.00;;;;;;5036523;28;20087;-65
2023/06/10 07:50:43;;;;;;;7.22;2.70;;;20.40;45.60;;;;;;5018498;28;20040;-64
2023/06/10 07:53:09;;;;;;;4.47;2.80;;;20.40;46.10;;;;;;5036324;28;20124;-64
2023/06/10 07:55:35;;;;;;;4.15;2.72;;;20.70;47.30;;;;;;5036211;28;20045;-64
2023/06/10 07:58:00;;;;;;;4.10;2.60;;;20.50;43.20;;;;;;5036362;28;20045;-64
2023/06/10 08:00:26;;;;;;;4.50;3.08;;;20.60;41.60;;;;;;5035144;28;20373;-65
2023/06/10 08:02:51;;;;;;;4.60;2.50;;;20.60;39.40;;;;;;5035880;28;20060;-63
2023/06/10 08:05:17;;;;;;;4.28;2.75;;;20.80;40.70;;;;;;5036246;28;20050;-64
2023/06/10 08:07:43;;;;;;;4.95;2.83;;;20.80;34.90;;;;;;5036147;28;20071;-65
2023/06/10 08:10:09;;;;;;;3.38;2.60;;;20.90;33.10;;;;;;5036121;28;20052;-65
2023/06/10 08:12:35;;;;;;;6.03;2.80;;;21.00;32.00;;;;;;5035729;28;20400;-64
2023/06/10 08:15:03;;;;;;;5.22;3.08;;;21.00;29.40;;;;;;5036086;28;20132;-62
2023/06/10 08:17:30;;;;;;;4.22;2.65;;;21.10;32.60;;;;;;5035703;28;20048;-63
2023/06/10 08:19:55;;;;;;;5.85;2.80;;;21.00;32.00;;;;;;5035929;28;20470;-63
2023/06/10 08:22:21;;;;;;;4.65;2.78;;;21.40;34.80;;;;;;5018157;28;20041;-65
2023/06/10 08:24:47;;;;;;;5.60;3.25;;;21.30;33.20;;;;;;5017812;28;20509;-64
2023/06/10 08:27:12;;;;;;;5.35;2.90;;;21.50;46.40;;;;;;5035612;28;20037;-65
2023/06/10 08:29:38;;;;;;;4.28;2.67;;;21.60;32.10;;;;;;5035830;28;20389;-65
2023/06/10 08:32:04;;;;;;;4.82;2.70;;;21.80;29.80;;;;;;5035399;28;20091;-64
2023/06/10 08:34:33;;;;;;;4.55;2.92;;;21.80;27.50;;;;;;5035697;28;20052;-64
2023/06/10 08:36:59;;;;;;;4.68;3.03;;;21.70;29.40;;;;;;5035676;28;20500;-65
2023/06/10 08:39:25;;;;;;;6.28;3.00;;;21.80;29.40;;;;;;5035613;28;20037;-64
2023/06/10 08:42:06;;;;;;;8.85;3.63;;;21.70;29.80;;;;;;5035560;28;20412;-64
2023/06/10 08:44:33;;;;;;;5.80;2.67;;;21.80;28.70;;;;;;5017745;28;20056;-64
2023/06/10 08:47:00;;;;;;;4.95;2.72;;;21.90;34.40;;;;;;5035434;28;20489;-64
2023/06/10 08:49:27;;;;;;;4.10;2.42;;;21.90;38.80;;;;;;5034896;28;20042;-64
2023/06/10 08:51:59;;;;;;;4.75;2.42;;;21.90;40.50;;;;;;5034966;28;20037;-64
2023/06/10 08:54:30;;;;;;;5.30;2.92;;;;;;;;;;5035338;28;20042;-64
2023/06/10 08:56:58;;;;;;;3.92;2.40;;;22.40;15.00;;;;;;5035291;28;20037;-67
2023/06/10 08:59:25;;;;;;;4.05;2.60;;;22.40;22.70;;;;;;5034924;28;20048;-64
2023/06/10 09:01:52;;;;;;;6.15;2.97;;;22.30;21.00;;;;;;5035181;28;20492;-63
2023/06/10 09:04:19;;;;;;;4.35;2.45;;;22.30;22.10;;;;;;5034670;28;20049;-64
2023/06/10 09:06:45;;;;;;;3.35;2.33;;;23.10;21.40;;;;;;5035079;28;20370;-64
2023/06/10 09:09:13;;;;;;;6.70;2.65;;;22.50;19.90;;;;;;5034948;28;20057;-62
2023/06/10 09:11:39;;;;;;;4.18;2.30;;;22.50;20.20;;;;;;5034872;28;20372;-64
2023/06/10 09:14:04;;;;;;;4.93;2.58;;;22.70;22.40;;;;;;5034648;28;20040;-63
2023/06/10 09:16:30;;;;;;;3.78;2.10;;;22.70;22.60;;;;;;5034864;28;20041;-62
2023/06/10 09:18:56;;;;;;;4.57;2.47;;;22.80;22.30;;;;;;5017112;28;20083;-62
2023/06/10 09:21:23;;;;;;;5.95;2.30;;;23.00;23.90;;;;;;5034795;28;20041;-63
2023/06/10 09:23:48;;;;;;;2.22;1.90;;;23.10;34.90;;;;;;5034713;28;20455;-62
2023/06/10 09:26:14;;;;;;;3.67;2.53;;;23.10;24.30;;;;;;5000562;28;20049;-61
2023/06/10 09:28:43;;;;;;;5.15;2.75;;;23.10;21.80;;;;;;5016923;28;20045;-62
2023/06/10 09:31:09;;;;;;;5.00;2.42;;;23.20;22.90;;;;;;5034256;28;20041;-62
2023/06/10 09:33:39;;;;;;;6.10;2.67;;;23.00;21.80;;;;;;5034332;28;20037;-62
2023/06/10 09:36:05;;;;;;;4.05;2.00;;;23.20;20.20;;;;;;5034194;28;20037;-64
2023/06/10 09:38:33;;;;;;;2.53;2.03;;;23.20;20.00;;;;;;5034499;28;20041;-65
2023/06/10 09:41:01;;;;;;;3.65;1.95;;;23.30;19.20;;;;;;5034101;28;20042;-66
2023/06/10 09:43:44;;;;;;;3.10;1.60;;;23.40;19.80;;;;;;5034112;28;20120;-66
2023/06/10 09:46:18;;;;;;;3.28;2.00;;;23.30;17.00;;;;;;5016727;28;20033;-65
2023/06/10 09:48:45;;;;;;;4.05;2.08;;;23.50;20.60;;;;;;5034282;28;20038;-65
2023/06/10 09:51:13;;;;;;;4.00;2.08;;;23.60;22.00;;;;;;5034086;28;20041;-67
2023/06/10 09:53:38;;;;;;;3.55;1.73;;;23.40;20.00;;;;;;5034175;28;20365;-65
2023/06/10 09:56:05;;;;;;;4.38;2.17;;;23.70;22.20;;;;;;5033857;28;20049;-65
2023/06/10 09:58:38;;;;;;;3.83;2.00;;;;;;;;;;5033865;28;20037;-65
2023/06/10 10:01:09;;;;;;;6.10;2.20;;;;;;;;;;5033186;28;20037;-65
2023/06/10 10:03:43;;;;;;;4.38;2.53;;;;;;;;;;5033616;28;20054;-65
2023/06/10 10:06:09;;;;;;;3.70;1.90;;;24.10;12.00;;;;;;5034005;28;20477;-64
2023/06/10 10:08:35;;;;;;;2.70;1.60;;;24.10;20.40;;;;;;5033631;28;20037;-66
2023/06/10 10:11:02;;;;;;;3.38;1.70;;;24.00;20.20;;;;;;5033802;28;20041;-65
2023/06/10 10:13:31;;;;;;;3.15;1.60;;;24.00;20.00;;;;;;5034141;28;20116;-65
2023/06/10 10:16:00;;;;;;;4.38;1.75;;;24.10;21.60;;;;;;5033775;28;20050;-64
2023/06/10 10:18:30;;;;;;;2.08;1.58;;;24.20;19.20;;;;;;5033688;28;20037;-65
2023/06/10 10:20:57;;;;;;;4.65;1.75;;;24.20;28.70;;;;;;5033727;28;20037;-65
2023/06/10 10:23:31;;;;;;;3.63;2.15;;;24.10;19.50;;;;;;5033711;28;20410;-63
2023/06/10 10:26:00;;;;;;;5.38;1.88;;;24.00;20.00;;;;;;5033686;28;20042;-65
2023/06/10 10:28:37;;;;;;;2.25;1.67;;;24.10;17.10;;;;;;5033296;28;20050;-65
2023/06/10 10:31:10;;;;;;;5.75;2.33;;;24.00;14.80;;;;;;5033236;28;20083;-64
2023/06/10 10:33:56;;;;;;;2.72;1.58;;;24.00;15.50;;;;;;5015783;28;20084;-65
2023/06/10 10:36:22;;;;;;;3.70;1.77;;;23.90;14.80;;;;;;5033385;28;20041;-65
2023/06/10 10:38:49;;;;;;;4.38;2.00;;;24.00;16.20;;;;;;5015489;28;20425;-64
2023/06/10 10:41:16;;;;;;;6.82;1.60;;;24.00;16.20;;;;;;5033115;28;20071;-66
2023/06/10 10:43:44;;;;;;;3.80;1.88;;;24.10;15.30;;;;;;5032120;28;20397;-65
2023/06/10 10:46:15;;;;;;;5.25;1.60;;;24.00;13.50;;;;;;5033261;28;20048;-65
2023/06/10 10:48:42;;;;;;;3.03;2.03;;;24.00;13.40;;;;;;5033375;28;20533;-65
2023/06/10 10:51:09;;;;;;;3.08;2.05;;;24.10;13.90;;;;;;5033139;28;20041;-65
2023/06/10 10:53:38;;;;;;;3.03;1.63;;;24.30;14.30;;;;;;5033190;28;20034;-66
2023/06/10 10:56:12;;;;;;;2.85;1.50;;;24.40;12.60;;;;;;5033133;28;20045;-66
2023/06/10 10:58:38;;;;;;;5.72;1.50;;;24.00;12.10;;;;;;5015075;28;20072;-66
2023/06/10 11:01:14;;;;;;;2.63;1.70;;;24.10;13.80;;;;;;5033127;28;20038;-65
2023/06/10 11:03:49;;;;;;;2.63;1.50;;;24.20;13.50;;;;;;5032676;28;20065;-65
2023/06/10 11:06:16;;;;;;;4.00;1.67;;;24.20;13.30;;;;;;5033031;28;20037;-66
2023/06/10 11:08:42;;;;;;;2.28;1.60;;;24.30;14.20;;;;;;5032746;28;20033;-64
2023/06/10 11:11:27;;;;;;;3.03;1.50;;;24.30;14.00;;;;;;5033039;28;20053;-66
2023/06/10 11:14:04;;;;;;;2.13;1.38;;;24.40;12.70;;;;;;5032883;28;20042;-66
2023/06/10 11:16:29;;;;;;;3.13;1.70;;;24.40;12.10;;;;;;5033027;28;20476;-65
2023/06/10 11:18:56;;;;;;;4.85;1.90;;;24.10;11.80;;;;;;5032964;28;20033;-65
2023/06/10 11:21:25;;;;;;;2.70;1.63;;;24.30;11.00;;;;;;5032879;28;20511;-66
2023/06/10 11:23:51;;;;;;;2.90;1.40;;;24.40;11.80;;;;;;5032627;28;20380;-66
2023/06/10 11:26:32;;;;;;;4.60;1.75;;;24.40;11.80;;;;;;5032598;28;20040;-65
2023/06/10 11:28:57;;;;;;;2.40;1.52;;;24.40;10.80;;;;;;5032853;28;20122;-68
2023/06/10 11:31:25;;;;;;;4.00;1.50;;;24.50;10.70;;;;;;5032490;28;20077;-65
2023/06/10 11:33:58;;;;;;;4.97;1.80;;;24.40;10.80;;;;;;5032700;28;20037;-65
2023/06/10 11:36:25;;;;;;;2.05;1.30;;;24.50;10.60;;;;;;5032601;28;20041;-66
2023/06/10 11:38:57;;;;;;;2.33;1.67;;;24.80;10.80;;;;;;5032699;28;20485;-65
2023/06/10 11:41:25;;;;;;;3.30;1.20;;;24.70;12.00;;;;;;5032703;28;20045;-65
2023/06/10 11:43:51;;;;;;;2.97;1.52;;;24.80;12.50;;;;;;5032714;28;20076;-65
2023/06/10 11:46:17;;;;;;;3.33;1.48;;;24.80;11.50;;;;;;5032651;28;20045;-68
2023/06/10 11:48:56;;;;;;;2.25;1.20;;;24.80;9.50;;;;;;5032675;28;20538;-65
2023/06/10 11:51:24;;;;;;;3.13;1.20;;;24.80;8.80;;;;;;5032510;28;20392;-65
2023/06/10 11:53:50;;;;;;;3.90;1.60;;;24.70;8.40;;;;;;5032596;28;20083;-65
2023/06/10 11:56:27;;;;;;;1.23;1.02;;;24.90;9.50;;;;;;5032538;28;20029;-65
2023/06/10 11:59:07;;;;;;;1.75;1.05;;;24.90;8.20;;;;;;5032284;28;20084;-65
2023/06/10 12:01:43;;;;;;;3.40;1.23;;;24.90;8.00;;;;;;5014581;28;20049;-65
2023/06/10 12:04:11;;;;;;;2.95;1.52;;;25.50;8.50;;;;;;5032027;28;20108;-65
2023/06/10 12:06:50;;;;;;;1.92;1.33;;;25.00;7.90;;;;;;5032181;28;20081;-65
2023/06/10 12:09:29;;;;;;;3.10;1.80;;;25.10;7.70;;;;;;5032179;28;20066;-65
2023/06/10 12:12:05;;;;;;;1.95;1.27;;;25.10;8.90;;;;;;5032336;28;20095;-65
2023/06/10 12:14:54;;;;;;;6.03;1.90;;;25.20;8.20;;;;;;5032212;28;20072;-66
2023/06/10 12:17:24;;;;;;;1.98;1.40;;;25.20;8.80;;;;;;5032354;28;20406;-65
2023/06/10 12:19:52;;;;;;;4.30;1.30;;;25.40;10.10;;;;;;5032077;28;20041;-64
2023/06/10 12:22:19;;;;;;;2.50;1.20;;;25.40;8.30;;;;;;5032062;28;20045;-66
2023/06/10 12:24:57;;;;;;;4.47;1.65;;;25.40;8.80;;;;;;5033982;28;20056;-65
2023/06/10 12:27:22;;;;;;;3.03;1.60;;;25.40;8.70;;;;;;5035827;28;20041;-65
2023/06/10 12:29:54;;;;;;;2.47;1.40;;;25.40;9.20;;;;;;5018095;28;20393;-65
2023/06/10 12:32:22;;;;;;;3.17;1.42;;;25.40;9.90;;;;;;5035682;28;20055;-66
2023/06/10 12:34:48;;;;;;;3.22;1.52;;;25.50;10.30;;;;;;5017751;28;20121;-65
2023/06/10 12:37:14;;;;;;;5.22;1.20;;;25.60;9.10;;;;;;5017684;28;20124;-65
2023/06/10 12:39:41;;;;;;;3.20;1.52;;;25.70;9.90;;;;;;5035643;28;20445;-65
2023/06/10 12:42:09;;;;;;;2.50;1.40;;;25.60;10.20;;;;;;5035590;28;20041;-66
2023/06/10 12:44:39;;;;;;;1.92;1.25;;;25.80;11.00;;;;;;5035508;28;20107;-65
2023/06/10 12:47:09;;;;;;;3.00;1.50;;;25.80;11.00;;;;;;5035514;28;20124;-66
2023/06/10 12:49:36;;;;;;;2.35;1.48;;;25.70;9.90;;;;;;5035476;28;20400;-65
2023/06/10 12:52:02;;;;;;;1.83;1.20;;;25.80;10.10;;;;;;5035355;28;20033;-66